createdAt,value
2024-03-02T00:09:17.490Z,78.02
2024-03-02T00:19:40.956Z,77.98
2024-03-02T00:30:07.323Z,77.82
2024-03-02T00:40:30.735Z,78.01
2024-03-02T00:50:53.544Z,78.05
2024-03-02T01:01:15.055Z,77.90
2024-03-02T01:11:35.967Z,77.96
2024-03-02T01:21:57.982Z,77.88
2024-03-02T01:32:19.103Z,78.17
2024-03-02T01:42:40.574Z,77.77
2024-03-02T01:53:03.034Z,78.26
2024-03-02T02:03:23.938Z,77.94
2024-03-02T02:13:44.728Z,78.03
2024-03-02T02:24:05.772Z,78.02
2024-03-02T02:34:26.782Z,77.78
2024-03-02T02:44:47.662Z,77.67
2024-03-02T02:55:10.660Z,77.55
2024-03-02T03:05:31.606Z,77.02
2024-03-02T03:15:54.065Z,77.08
2024-03-02T03:26:14.971Z,77.11
2024-03-02T03:36:35.754Z,77.14
2024-03-02T03:46:56.636Z,76.85
2024-03-02T03:57:18.258Z,76.90
2024-03-02T04:07:42.183Z,76.82
2024-03-02T04:18:03.428Z,77.26
2024-03-02T04:28:24.329Z,77.06
2024-03-02T04:38:45.076Z,76.86
2024-03-02T04:49:05.940Z,76.89
2024-03-02T04:59:26.627Z,76.85
2024-03-02T05:09:49.582Z,76.53
2024-03-02T05:20:10.998Z,76.23
2024-03-02T05:30:31.692Z,76.71
2024-03-02T05:40:52.504Z,76.69
2024-03-02T05:51:13.497Z,76.42
2024-03-02T06:01:34.213Z,76.56
2024-03-02T06:11:54.901Z,76.77
2024-03-02T06:22:15.712Z,76.77
2024-03-02T06:32:36.633Z,76.90
2024-03-02T06:42:57.578Z,76.42
2024-03-02T06:53:18.982Z,76.55
2024-03-02T07:03:43.258Z,79.04
2024-03-02T07:14:04.408Z,75.52
2024-03-02T07:24:25.633Z,75.79
2024-03-02T07:34:46.340Z,75.77
2024-03-02T07:45:07.807Z,75.62
2024-03-02T07:55:28.524Z,75.82
2024-03-02T08:05:49.281Z,75.83
2024-03-02T08:16:10.700Z,75.81
2024-03-02T08:26:32.810Z,75.55
2024-03-02T08:36:54.074Z,77.00
2024-03-02T08:47:15.301Z,75.37
2024-03-02T08:57:36.341Z,75.42
2024-03-02T09:07:57.177Z,74.89
2024-03-02T09:18:17.925Z,74.42
2024-03-02T09:28:38.835Z,75.12
2024-03-02T09:38:59.947Z,75.29
2024-03-02T09:49:21.102Z,74.76
2024-03-02T09:59:48.106Z,74.47
2024-03-02T10:10:16.250Z,74.94
2024-03-02T10:20:37.723Z,73.70
2024-03-02T10:30:59.213Z,74.11
2024-03-02T10:41:20.707Z,73.85
2024-03-02T10:51:41.799Z,73.75
2024-03-02T11:02:06.282Z,73.34
2024-03-02T11:12:32.963Z,73.71
2024-03-02T11:22:54.085Z,73.58
2024-03-02T11:33:16.336Z,72.89
2024-03-02T11:43:41.021Z,72.54
2024-03-02T11:54:04.244Z,72.46
2024-03-02T12:04:25.678Z,72.20
2024-03-02T12:14:53.103Z,72.09
2024-03-02T12:25:14.289Z,71.95
2024-03-02T12:35:37.537Z,72.33
2024-03-02T12:45:59.738Z,72.15
2024-03-02T12:56:20.486Z,72.25
2024-03-02T13:06:42.060Z,72.28
2024-03-02T13:17:10.651Z,72.59
2024-03-02T13:27:33.309Z,71.96
2024-03-02T13:37:54.372Z,71.93
2024-03-02T13:48:15.941Z,72.21
2024-03-02T13:58:37.145Z,71.97
2024-03-02T14:08:58.021Z,72.38
2024-03-02T14:19:19.237Z,71.96
2024-03-02T14:29:41.336Z,71.67
2024-03-02T14:40:02.347Z,71.76
2024-03-02T14:50:23.368Z,71.86
2024-03-02T15:00:44.574Z,71.55
2024-03-02T15:11:05.342Z,71.48
2024-03-02T15:21:26.125Z,70.96
2024-03-02T15:31:47.057Z,71.23
2024-03-02T15:42:11.344Z,71.94
2024-03-02T15:52:32.316Z,71.16
2024-03-02T16:02:54.395Z,70.73
2024-03-02T16:13:15.507Z,70.98
2024-03-02T16:23:36.290Z,70.96
2024-03-02T16:33:57.367Z,70.96
2024-03-02T16:44:18.328Z,70.70
2024-03-02T16:54:39.283Z,70.70
2024-03-02T17:05:00.551Z,70.83
2024-03-02T17:15:21.500Z,71.21
2024-03-02T17:25:43.111Z,74.89
2024-03-02T17:36:05.386Z,71.98
2024-03-02T17:46:26.880Z,72.06
2024-03-02T17:56:47.931Z,70.62
2024-03-02T18:07:15.380Z,69.88
2024-03-02T18:17:37.020Z,70.09
2024-03-02T18:27:58.154Z,70.78
2024-03-02T18:38:18.892Z,71.40
2024-03-02T18:48:40.511Z,71.60
2024-03-02T18:59:01.270Z,71.89
2024-03-02T19:09:22.273Z,71.91
2024-03-02T19:19:43.277Z,71.88
2024-03-02T19:30:06.038Z,71.93
2024-03-02T19:40:26.830Z,72.27
2024-03-02T19:50:49.023Z,72.18
2024-03-02T20:01:10.141Z,72.28
2024-03-02T20:11:34.739Z,72.52
2024-03-02T20:21:55.814Z,72.34
2024-03-02T20:32:18.847Z,72.25
2024-03-02T20:42:40.026Z,72.16
2024-03-02T20:53:07.079Z,72.08
2024-03-02T21:03:28.227Z,72.35
2024-03-02T21:13:50.540Z,71.92
2024-03-02T21:24:11.659Z,72.29
2024-03-02T21:34:32.722Z,72.11
2024-03-02T21:44:54.019Z,72.11
2024-03-02T21:55:14.991Z,71.98
2024-03-02T22:05:36.275Z,71.97
2024-03-02T22:15:57.133Z,72.39
2024-03-02T22:26:18.466Z,72.41
2024-03-02T22:36:39.782Z,72.41
2024-03-02T22:47:01.003Z,72.54
2024-03-02T22:57:21.790Z,72.61
2024-03-02T23:07:42.488Z,72.72
2024-03-02T23:18:04.208Z,72.64
2024-03-02T23:28:25.238Z,72.63
2024-03-02T23:38:46.183Z,72.82
2024-03-02T23:49:06.817Z,72.83
2024-03-02T23:59:27.602Z,72.89
